sensor_id;sensor_type;location;lat;lon;timestamp;P1;durP1;ratioP1;P2;durP2;ratioP2
19780;SDS011;10050;55.492;13.506;2024-01-30T00:01:57;9.07;;;6.73;;
19780;SDS011;10050;55.492;13.506;2024-01-30T00:04:23;8.43;;;6.17;;
19780;SDS011;10050;55.492;13.506;2024-01-30T00:06:48;7.70;;;6.00;;
19780;SDS011;10050;55.492;13.506;2024-01-30T00:09:15;8.20;;;6.30;;
19780;SDS011;10050;55.492;13.506;2024-01-30T00:11:41;7.23;;;6.20;;
19780;SDS011;10050;55.492;13.506;2024-01-30T00:14:07;6.80;;;6.10;;
19780;SDS011;10050;55.492;13.506;2024-01-30T00:16:32;9.20;;;6.63;;
19780;SDS011;10050;55.492;13.506;2024-01-30T00:18:58;8.93;;;6.63;;
19780;SDS011;10050;55.492;13.506;2024-01-30T00:21:23;6.37;;;5.40;;
19780;SDS011;10050;55.492;13.506;2024-01-30T00:23:49;6.90;;;5.93;;
19780;SDS011;10050;55.492;13.506;2024-01-30T00:26:15;9.60;;;6.37;;
19780;SDS011;10050;55.492;13.506;2024-01-30T00:28:41;7.23;;;5.43;;
19780;SDS011;10050;55.492;13.506;2024-01-30T00:31:07;7.03;;;5.73;;
19780;SDS011;10050;55.492;13.506;2024-01-30T00:33:33;6.47;;;5.80;;
19780;SDS011;10050;55.492;13.506;2024-01-30T00:35:58;8.47;;;5.13;;
19780;SDS011;10050;55.492;13.506;2024-01-30T00:38:24;5.90;;;5.30;;
19780;SDS011;10050;55.492;13.506;2024-01-30T00:40:50;9.23;;;6.10;;
19780;SDS011;10050;55.492;13.506;2024-01-30T00:43:15;6.33;;;5.40;;
19780;SDS011;10050;55.492;13.506;2024-01-30T00:45:43;7.97;;;5.20;;
19780;SDS011;10050;55.492;13.506;2024-01-30T00:48:08;4.80;;;4.40;;
19780;SDS011;10050;55.492;13.506;2024-01-30T00:50:34;6.63;;;5.33;;
19780;SDS011;10050;55.492;13.506;2024-01-30T00:53:00;7.30;;;5.50;;
19780;SDS011;10050;55.492;13.506;2024-01-30T00:55:25;8.23;;;5.90;;
19780;SDS011;10050;55.492;13.506;2024-01-30T00:57:51;5.83;;;5.23;;
19780;SDS011;10050;55.492;13.506;2024-01-30T01:00:17;6.80;;;5.83;;
19780;SDS011;10050;55.492;13.506;2024-01-30T01:02:43;7.00;;;5.10;;
19780;SDS011;10050;55.492;13.506;2024-01-30T01:05:09;8.47;;;5.10;;
19780;SDS011;10050;55.492;13.506;2024-01-30T01:07:35;5.83;;;5.23;;
19780;SDS011;10050;55.492;13.506;2024-01-30T01:10:01;6.27;;;5.67;;
19780;SDS011;10050;55.492;13.506;2024-01-30T01:12:27;7.60;;;5.13;;
19780;SDS011;10050;55.492;13.506;2024-01-30T01:14:53;7.90;;;5.70;;
19780;SDS011;10050;55.492;13.506;2024-01-30T01:17:18;7.33;;;5.53;;
19780;SDS011;10050;55.492;13.506;2024-01-30T01:19:44;9.00;;;5.40;;
19780;SDS011;10050;55.492;13.506;2024-01-30T01:22:10;6.40;;;5.70;;
19780;SDS011;10050;55.492;13.506;2024-01-30T01:24:36;6.33;;;5.00;;
19780;SDS011;10050;55.492;13.506;2024-01-30T01:27:02;9.90;;;5.53;;
19780;SDS011;10050;55.492;13.506;2024-01-30T01:29:28;7.17;;;5.13;;
19780;SDS011;10050;55.492;13.506;2024-01-30T01:31:57;6.63;;;5.20;;
19780;SDS011;10050;55.492;13.506;2024-01-30T01:34:23;6.37;;;5.30;;
19780;SDS011;10050;55.492;13.506;2024-01-30T01:36:50;5.97;;;5.13;;
19780;SDS011;10050;55.492;13.506;2024-01-30T01:39:16;6.50;;;5.43;;
19780;SDS011;10050;55.492;13.506;2024-01-30T01:41:42;7.53;;;5.87;;
19780;SDS011;10050;55.492;13.506;2024-01-30T01:44:08;7.43;;;5.50;;
19780;SDS011;10050;55.492;13.506;2024-01-30T01:46:34;7.90;;;5.57;;
19780;SDS011;10050;55.492;13.506;2024-01-30T01:49:04;7.40;;;5.80;;
19780;SDS011;10050;55.492;13.506;2024-01-30T01:51:31;7.27;;;5.60;;
19780;SDS011;10050;55.492;13.506;2024-01-30T01:53:59;7.73;;;6.37;;
19780;SDS011;10050;55.492;13.506;2024-01-30T01:56:28;8.73;;;7.03;;
19780;SDS011;10050;55.492;13.506;2024-01-30T01:58:55;7.07;;;6.30;;
19780;SDS011;10050;55.492;13.506;2024-01-30T02:01:25;6.67;;;5.73;;
19780;SDS011;10050;55.492;13.506;2024-01-30T02:03:53;9.90;;;7.00;;
19780;SDS011;10050;55.492;13.506;2024-01-30T02:06:19;9.80;;;7.27;;
19780;SDS011;10050;55.492;13.506;2024-01-30T02:08:45;13.30;;;7.73;;
19780;SDS011;10050;55.492;13.506;2024-01-30T02:11:11;9.10;;;7.67;;
19780;SDS011;10050;55.492;13.506;2024-01-30T02:13:37;9.90;;;7.17;;
19780;SDS011;10050;55.492;13.506;2024-01-30T02:16:02;7.97;;;6.67;;
19780;SDS011;10050;55.492;13.506;2024-01-30T02:18:31;7.97;;;6.97;;
19780;SDS011;10050;55.492;13.506;2024-01-30T02:20:58;9.43;;;7.57;;
19780;SDS011;10050;55.492;13.506;2024-01-30T02:23:26;13.90;;;8.30;;
19780;SDS011;10050;55.492;13.506;2024-01-30T02:25:52;10.80;;;7.57;;
19780;SDS011;10050;55.492;13.506;2024-01-30T02:28:18;11.20;;;7.83;;
19780;SDS011;10050;55.492;13.506;2024-01-30T02:30:45;11.93;;;8.00;;
19780;SDS011;10050;55.492;13.506;2024-01-30T02:33:11;7.80;;;6.73;;
19780;SDS011;10050;55.492;13.506;2024-01-30T02:35:39;10.27;;;7.50;;
19780;SDS011;10050;55.492;13.506;2024-01-30T02:38:04;7.97;;;6.23;;
19780;SDS011;10050;55.492;13.506;2024-01-30T02:40:30;9.53;;;6.73;;
19780;SDS011;10050;55.492;13.506;2024-01-30T02:42:58;10.77;;;7.77;;
19780;SDS011;10050;55.492;13.506;2024-01-30T02:45:24;10.90;;;7.90;;
19780;SDS011;10050;55.492;13.506;2024-01-30T02:47:50;9.83;;;6.80;;
19780;SDS011;10050;55.492;13.506;2024-01-30T02:50:16;8.00;;;7.20;;
19780;SDS011;10050;55.492;13.506;2024-01-30T02:52:42;11.50;;;7.90;;
19780;SDS011;10050;55.492;13.506;2024-01-30T02:55:09;8.90;;;7.23;;
19780;SDS011;10050;55.492;13.506;2024-01-30T02:57:35;13.73;;;7.80;;
19780;SDS011;10050;55.492;13.506;2024-01-30T03:00:00;11.80;;;8.03;;
19780;SDS011;10050;55.492;13.506;2024-01-30T03:02:26;11.80;;;8.60;;
19780;SDS011;10050;55.492;13.506;2024-01-30T03:04:52;13.03;;;9.67;;
19780;SDS011;10050;55.492;13.506;2024-01-30T03:07:17;12.47;;;9.47;;
19780;SDS011;10050;55.492;13.506;2024-01-30T03:09:43;13.27;;;8.73;;
19780;SDS011;10050;55.492;13.506;2024-01-30T03:12:09;19.10;;;9.67;;
19780;SDS011;10050;55.492;13.506;2024-01-30T03:14:37;18.37;;;10.20;;
19780;SDS011;10050;55.492;13.506;2024-01-30T03:17:03;21.67;;;9.77;;
19780;SDS011;10050;55.492;13.506;2024-01-30T03:19:29;19.37;;;10.03;;
19780;SDS011;10050;55.492;13.506;2024-01-30T03:21:54;21.70;;;9.73;;
19780;SDS011;10050;55.492;13.506;2024-01-30T03:24:20;15.37;;;9.33;;
19780;SDS011;10050;55.492;13.506;2024-01-30T03:26:45;11.87;;;8.83;;
19780;SDS011;10050;55.492;13.506;2024-01-30T03:29:11;14.80;;;8.23;;
19780;SDS011;10050;55.492;13.506;2024-01-30T03:31:37;15.77;;;9.03;;
19780;SDS011;10050;55.492;13.506;2024-01-30T03:34:03;22.43;;;10.53;;
19780;SDS011;10050;55.492;13.506;2024-01-30T03:36:29;18.67;;;9.27;;
19780;SDS011;10050;55.492;13.506;2024-01-30T03:38:57;19.60;;;10.17;;
19780;SDS011;10050;55.492;13.506;2024-01-30T03:41:23;27.43;;;10.27;;
19780;SDS011;10050;55.492;13.506;2024-01-30T03:43:49;19.57;;;9.90;;
19780;SDS011;10050;55.492;13.506;2024-01-30T03:46:15;18.93;;;10.20;;
19780;SDS011;10050;55.492;13.506;2024-01-30T03:48:40;36.73;;;14.83;;
19780;SDS011;10050;55.492;13.506;2024-01-30T03:51:06;42.83;;;16.70;;
19780;SDS011;10050;55.492;13.506;2024-01-30T03:53:32;31.10;;;15.53;;
19780;SDS011;10050;55.492;13.506;2024-01-30T03:55:57;24.33;;;13.17;;
19780;SDS011;10050;55.492;13.506;2024-01-30T03:58:23;34.53;;;16.37;;
19780;SDS011;10050;55.492;13.506;2024-01-30T04:00:48;37.93;;;16.30;;
19780;SDS011;10050;55.492;13.506;2024-01-30T04:03:14;36.73;;;15.37;;
19780;SDS011;10050;55.492;13.506;2024-01-30T04:05:42;40.07;;;17.23;;
19780;SDS011;10050;55.492;13.506;2024-01-30T04:08:08;33.97;;;15.37;;
19780;SDS011;10050;55.492;13.506;2024-01-30T04:10:34;34.80;;;15.70;;
19780;SDS011;10050;55.492;13.506;2024-01-30T04:13:00;37.53;;;16.63;;
19780;SDS011;10050;55.492;13.506;2024-01-30T04:15:26;38.03;;;17.97;;
19780;SDS011;10050;55.492;13.506;2024-01-30T04:17:51;35.67;;;17.20;;
19780;SDS011;10050;55.492;13.506;2024-01-30T04:20:18;44.20;;;17.33;;
19780;SDS011;10050;55.492;13.506;2024-01-30T04:22:44;37.80;;;18.03;;
19780;SDS011;10050;55.492;13.506;2024-01-30T04:25:11;44.00;;;16.67;;
19780;SDS011;10050;55.492;13.506;2024-01-30T04:27:37;40.20;;;17.87;;
19780;SDS011;10050;55.492;13.506;2024-01-30T04:30:03;40.50;;;17.23;;
19780;SDS011;10050;55.492;13.506;2024-01-30T04:32:29;52.60;;;16.70;;
19780;SDS011;10050;55.492;13.506;2024-01-30T04:34:54;37.90;;;17.20;;
19780;SDS011;10050;55.492;13.506;2024-01-30T04:37:20;43.03;;;15.90;;
19780;SDS011;10050;55.492;13.506;2024-01-30T04:39:46;34.90;;;15.50;;
19780;SDS011;10050;55.492;13.506;2024-01-30T04:42:11;47.67;;;18.90;;
19780;SDS011;10050;55.492;13.506;2024-01-30T04:44:37;58.97;;;19.70;;
19780;SDS011;10050;55.492;13.506;2024-01-30T04:47:03;43.00;;;18.80;;
19780;SDS011;10050;55.492;13.506;2024-01-30T04:49:30;51.57;;;18.93;;
19780;SDS011;10050;55.492;13.506;2024-01-30T04:51:56;51.90;;;19.97;;
19780;SDS011;10050;55.492;13.506;2024-01-30T04:54:22;64.73;;;18.90;;
19780;SDS011;10050;55.492;13.506;2024-01-30T04:56:48;52.47;;;19.00;;
19780;SDS011;10050;55.492;13.506;2024-01-30T04:59:14;45.57;;;19.63;;
19780;SDS011;10050;55.492;13.506;2024-01-30T05:01:39;46.63;;;19.53;;
19780;SDS011;10050;55.492;13.506;2024-01-30T05:04:07;39.93;;;18.13;;
19780;SDS011;10050;55.492;13.506;2024-01-30T05:06:33;40.50;;;18.37;;
19780;SDS011;10050;55.492;13.506;2024-01-30T05:08:58;43.60;;;18.27;;
19780;SDS011;10050;55.492;13.506;2024-01-30T05:11:24;46.43;;;19.13;;
19780;SDS011;10050;55.492;13.506;2024-01-30T05:13:50;63.17;;;19.37;;
19780;SDS011;10050;55.492;13.506;2024-01-30T05:16:15;45.77;;;19.13;;
19780;SDS011;10050;55.492;13.506;2024-01-30T05:18:41;34.07;;;17.03;;
19780;SDS011;10050;55.492;13.506;2024-01-30T05:21:06;43.30;;;19.40;;
19780;SDS011;10050;55.492;13.506;2024-01-30T05:23:32;53.23;;;18.30;;
19780;SDS011;10050;55.492;13.506;2024-01-30T05:25:57;39.57;;;18.97;;
19780;SDS011;10050;55.492;13.506;2024-01-30T05:28:25;45.07;;;17.20;;
19780;SDS011;10050;55.492;13.506;2024-01-30T05:30:51;40.87;;;17.90;;
19780;SDS011;10050;55.492;13.506;2024-01-30T05:33:17;46.87;;;17.87;;
19780;SDS011;10050;55.492;13.506;2024-01-30T05:35:42;38.50;;;17.70;;
19780;SDS011;10050;55.492;13.506;2024-01-30T05:38:08;43.87;;;19.27;;
19780;SDS011;10050;55.492;13.506;2024-01-30T05:40:34;37.90;;;18.63;;
19780;SDS011;10050;55.492;13.506;2024-01-30T05:42:59;45.30;;;17.73;;
19780;SDS011;10050;55.492;13.506;2024-01-30T05:45:26;33.67;;;16.13;;
19780;SDS011;10050;55.492;13.506;2024-01-30T05:47:52;46.33;;;18.90;;
19780;SDS011;10050;55.492;13.506;2024-01-30T05:50:18;49.50;;;18.93;;
19780;SDS011;10050;55.492;13.506;2024-01-30T05:52:44;45.87;;;18.17;;
19780;SDS011;10050;55.492;13.506;2024-01-30T05:55:11;36.17;;;16.67;;
19780;SDS011;10050;55.492;13.506;2024-01-30T05:57:37;37.63;;;16.50;;
19780;SDS011;10050;55.492;13.506;2024-01-30T06:00:04;34.83;;;16.77;;
19780;SDS011;10050;55.492;13.506;2024-01-30T06:02:30;59.63;;;16.70;;
19780;SDS011;10050;55.492;13.506;2024-01-30T06:04:56;44.37;;;18.50;;
19780;SDS011;10050;55.492;13.506;2024-01-30T06:07:22;37.13;;;16.47;;
19780;SDS011;10050;55.492;13.506;2024-01-30T06:09:47;45.40;;;17.53;;
19780;SDS011;10050;55.492;13.506;2024-01-30T06:12:13;51.07;;;17.43;;
19780;SDS011;10050;55.492;13.506;2024-01-30T06:14:39;44.97;;;17.80;;
19780;SDS011;10050;55.492;13.506;2024-01-30T06:17:04;50.60;;;17.80;;
19780;SDS011;10050;55.492;13.506;2024-01-30T06:19:30;50.97;;;17.40;;
19780;SDS011;10050;55.492;13.506;2024-01-30T06:21:56;42.10;;;18.27;;
19780;SDS011;10050;55.492;13.506;2024-01-30T06:24:22;58.93;;;19.53;;
19780;SDS011;10050;55.492;13.506;2024-01-30T06:26:47;40.07;;;17.67;;
19780;SDS011;10050;55.492;13.506;2024-01-30T06:29:13;41.23;;;18.87;;
19780;SDS011;10050;55.492;13.506;2024-01-30T06:31:40;40.50;;;17.00;;
19780;SDS011;10050;55.492;13.506;2024-01-30T06:34:07;42.90;;;16.90;;
19780;SDS011;10050;55.492;13.506;2024-01-30T06:36:33;37.10;;;16.27;;
19780;SDS011;10050;55.492;13.506;2024-01-30T06:38:59;36.70;;;16.93;;
19780;SDS011;10050;55.492;13.506;2024-01-30T06:41:25;37.40;;;16.20;;
19780;SDS011;10050;55.492;13.506;2024-01-30T06:43:51;44.80;;;17.00;;
19780;SDS011;10050;55.492;13.506;2024-01-30T06:46:17;47.87;;;18.00;;
19780;SDS011;10050;55.492;13.506;2024-01-30T06:48:42;35.70;;;17.53;;
19780;SDS011;10050;55.492;13.506;2024-01-30T06:51:09;51.90;;;18.70;;
19780;SDS011;10050;55.492;13.506;2024-01-30T06:53:35;86.23;;;18.03;;
19780;SDS011;10050;55.492;13.506;2024-01-30T06:56:01;54.27;;;18.90;;
19780;SDS011;10050;55.492;13.506;2024-01-30T06:58:27;50.93;;;16.47;;
19780;SDS011;10050;55.492;13.506;2024-01-30T07:00:54;69.90;;;16.53;;
19780;SDS011;10050;55.492;13.506;2024-01-30T07:03:19;42.27;;;16.40;;
19780;SDS011;10050;55.492;13.506;2024-01-30T07:05:45;45.67;;;18.53;;
19780;SDS011;10050;55.492;13.506;2024-01-30T07:08:11;53.63;;;18.37;;
19780;SDS011;10050;55.492;13.506;2024-01-30T07:10:36;76.50;;;18.17;;
19780;SDS011;10050;55.492;13.506;2024-01-30T07:13:02;52.73;;;17.07;;
19780;SDS011;10050;55.492;13.506;2024-01-30T07:15:30;38.13;;;16.97;;
19780;SDS011;10050;55.492;13.506;2024-01-30T07:17:55;41.80;;;17.17;;
19780;SDS011;10050;55.492;13.506;2024-01-30T07:20:21;60.43;;;16.93;;
19780;SDS011;10050;55.492;13.506;2024-01-30T07:22:47;46.77;;;16.57;;
19780;SDS011;10050;55.492;13.506;2024-01-30T07:25:16;47.77;;;16.83;;
19780;SDS011;10050;55.492;13.506;2024-01-30T07:27:42;50.73;;;17.97;;
19780;SDS011;10050;55.492;13.506;2024-01-30T07:30:08;38.17;;;16.70;;
19780;SDS011;10050;55.492;13.506;2024-01-30T07:32:33;61.53;;;17.57;;
19780;SDS011;10050;55.492;13.506;2024-01-30T07:35:02;53.23;;;17.23;;
19780;SDS011;10050;55.492;13.506;2024-01-30T07:37:28;38.47;;;17.33;;
19780;SDS011;10050;55.492;13.506;2024-01-30T07:39:53;45.60;;;16.83;;
19780;SDS011;10050;55.492;13.506;2024-01-30T07:42:28;51.33;;;17.20;;
19780;SDS011;10050;55.492;13.506;2024-01-30T07:44:54;59.50;;;16.77;;
19780;SDS011;10050;55.492;13.506;2024-01-30T07:47:20;60.30;;;16.57;;
19780;SDS011;10050;55.492;13.506;2024-01-30T07:49:46;58.37;;;16.23;;
19780;SDS011;10050;55.492;13.506;2024-01-30T07:52:11;47.40;;;16.70;;
19780;SDS011;10050;55.492;13.506;2024-01-30T07:57:40;57.27;;;15.63;;
19780;SDS011;10050;55.492;13.506;2024-01-30T08:00:06;66.23;;;15.67;;
19780;SDS011;10050;55.492;13.506;2024-01-30T08:02:32;57.73;;;15.30;;
19780;SDS011;10050;55.492;13.506;2024-01-30T08:04:58;56.30;;;17.23;;
19780;SDS011;10050;55.492;13.506;2024-01-30T08:07:23;49.03;;;17.03;;
19780;SDS011;10050;55.492;13.506;2024-01-30T08:09:49;73.07;;;16.93;;
19780;SDS011;10050;55.492;13.506;2024-01-30T08:12:15;56.63;;;16.23;;
19780;SDS011;10050;55.492;13.506;2024-01-30T08:14:41;57.63;;;16.93;;
19780;SDS011;10050;55.492;13.506;2024-01-30T08:17:07;101.27;;;16.67;;
19780;SDS011;10050;55.492;13.506;2024-01-30T08:19:32;100.20;;;16.03;;
19780;SDS011;10050;55.492;13.506;2024-01-30T08:21:58;55.70;;;16.23;;
19780;SDS011;10050;55.492;13.506;2024-01-30T08:24:24;48.97;;;16.07;;
19780;SDS011;10050;55.492;13.506;2024-01-30T08:26:50;61.27;;;17.50;;
19780;SDS011;10050;55.492;13.506;2024-01-30T08:29:16;48.93;;;16.30;;
19780;SDS011;10050;55.492;13.506;2024-01-30T08:31:41;83.27;;;16.80;;
19780;SDS011;10050;55.492;13.506;2024-01-30T08:34:07;54.83;;;17.50;;
19780;SDS011;10050;55.492;13.506;2024-01-30T08:36:32;57.73;;;15.33;;
19780;SDS011;10050;55.492;13.506;2024-01-30T08:38:58;49.33;;;17.07;;
19780;SDS011;10050;55.492;13.506;2024-01-30T08:41:24;101.93;;;16.70;;
19780;SDS011;10050;55.492;13.506;2024-01-30T08:43:49;86.57;;;17.03;;
19780;SDS011;10050;55.492;13.506;2024-01-30T08:46:18;61.47;;;17.80;;
19780;SDS011;10050;55.492;13.506;2024-01-30T08:48:44;63.67;;;17.60;;
19780;SDS011;10050;55.492;13.506;2024-01-30T08:51:10;56.67;;;17.13;;
19780;SDS011;10050;55.492;13.506;2024-01-30T08:53:36;56.80;;;18.57;;
19780;SDS011;10050;55.492;13.506;2024-01-30T08:56:02;83.47;;;17.70;;
19780;SDS011;10050;55.492;13.506;2024-01-30T08:58:28;62.67;;;18.03;;
19780;SDS011;10050;55.492;13.506;2024-01-30T09:00:54;52.23;;;17.27;;
19780;SDS011;10050;55.492;13.506;2024-01-30T09:03:20;54.43;;;17.27;;
19780;SDS011;10050;55.492;13.506;2024-01-30T09:05:45;50.57;;;17.27;;
19780;SDS011;10050;55.492;13.506;2024-01-30T09:08:11;76.07;;;17.93;;
19780;SDS011;10050;55.492;13.506;2024-01-30T09:10:37;76.63;;;17.27;;
19780;SDS011;10050;55.492;13.506;2024-01-30T09:13:02;109.73;;;17.73;;
19780;SDS011;10050;55.492;13.506;2024-01-30T09:15:28;72.23;;;17.03;;
19780;SDS011;10050;55.492;13.506;2024-01-30T09:17:54;78.63;;;17.93;;
19780;SDS011;10050;55.492;13.506;2024-01-30T09:20:19;83.13;;;17.63;;
19780;SDS011;10050;55.492;13.506;2024-01-30T09:22:47;76.13;;;16.80;;
19780;SDS011;10050;55.492;13.506;2024-01-30T09:25:13;68.93;;;16.50;;
19780;SDS011;10050;55.492;13.506;2024-01-30T09:27:38;102.17;;;16.40;;
19780;SDS011;10050;55.492;13.506;2024-01-30T09:30:05;63.70;;;16.33;;
19780;SDS011;10050;55.492;13.506;2024-01-30T09:32:31;67.67;;;14.13;;
19780;SDS011;10050;55.492;13.506;2024-01-30T09:34:59;89.80;;;15.10;;
19780;SDS011;10050;55.492;13.506;2024-01-30T09:37:25;64.77;;;13.80;;
19780;SDS011;10050;55.492;13.506;2024-01-30T09:39:50;54.23;;;14.93;;
19780;SDS011;10050;55.492;13.506;2024-01-30T09:44:51;87.03;;;14.27;;
19780;SDS011;10050;55.492;13.506;2024-01-30T09:47:18;185.63;;;17.93;;
19780;SDS011;10050;55.492;13.506;2024-01-30T09:49:43;62.60;;;15.63;;
19780;SDS011;10050;55.492;13.506;2024-01-30T09:52:09;77.00;;;14.40;;
19780;SDS011;10050;55.492;13.506;2024-01-30T09:54:36;79.97;;;16.53;;
19780;SDS011;10050;55.492;13.506;2024-01-30T09:57:03;119.60;;;16.83;;
19780;SDS011;10050;55.492;13.506;2024-01-30T09:59:30;65.40;;;15.73;;
19780;SDS011;10050;55.492;13.506;2024-01-30T10:01:56;102.50;;;15.13;;
19780;SDS011;10050;55.492;13.506;2024-01-30T10:04:22;93.57;;;15.40;;
19780;SDS011;10050;55.492;13.506;2024-01-30T10:06:48;67.33;;;14.97;;
19780;SDS011;10050;55.492;13.506;2024-01-30T10:09:14;71.90;;;14.27;;
19780;SDS011;10050;55.492;13.506;2024-01-30T10:11:40;125.13;;;18.33;;
19780;SDS011;10050;55.492;13.506;2024-01-30T10:14:05;60.57;;;14.23;;
19780;SDS011;10050;55.492;13.506;2024-01-30T10:16:31;83.80;;;15.87;;
19780;SDS011;10050;55.492;13.506;2024-01-30T10:18:57;60.77;;;16.30;;
19780;SDS011;10050;55.492;13.506;2024-01-30T10:21:22;72.30;;;17.53;;
19780;SDS011;10050;55.492;13.506;2024-01-30T10:23:49;74.77;;;16.33;;
19780;SDS011;10050;55.492;13.506;2024-01-30T10:26:18;123.60;;;17.23;;
19780;SDS011;10050;55.492;13.506;2024-01-30T10:28:43;167.13;;;19.63;;
19780;SDS011;10050;55.492;13.506;2024-01-30T10:31:09;102.13;;;18.77;;
19780;SDS011;10050;55.492;13.506;2024-01-30T10:33:34;77.00;;;18.30;;
19780;SDS011;10050;55.492;13.506;2024-01-30T10:36:04;65.83;;;16.80;;
19780;SDS011;10050;55.492;13.506;2024-01-30T10:38:31;130.87;;;19.17;;
19780;SDS011;10050;55.492;13.506;2024-01-30T10:40:58;82.40;;;17.60;;
19780;SDS011;10050;55.492;13.506;2024-01-30T10:43:36;73.57;;;19.53;;
19780;SDS011;10050;55.492;13.506;2024-01-30T10:46:09;79.93;;;18.97;;
19780;SDS011;10050;55.492;13.506;2024-01-30T10:48:42;82.73;;;20.53;;
19780;SDS011;10050;55.492;13.506;2024-01-30T10:51:09;74.37;;;18.17;;
19780;SDS011;10050;55.492;13.506;2024-01-30T10:53:37;108.83;;;19.13;;
19780;SDS011;10050;55.492;13.506;2024-01-30T10:56:04;85.47;;;18.73;;
19780;SDS011;10050;55.492;13.506;2024-01-30T10:58:31;102.13;;;19.67;;
19780;SDS011;10050;55.492;13.506;2024-01-30T11:00:56;83.63;;;18.90;;
19780;SDS011;10050;55.492;13.506;2024-01-30T11:03:22;98.63;;;18.57;;
19780;SDS011;10050;55.492;13.506;2024-01-30T11:05:49;78.53;;;20.00;;
19780;SDS011;10050;55.492;13.506;2024-01-30T11:08:22;76.13;;;19.57;;
19780;SDS011;10050;55.492;13.506;2024-01-30T11:10:56;56.63;;;17.93;;
19780;SDS011;10050;55.492;13.506;2024-01-30T11:13:31;64.10;;;17.90;;
19780;SDS011;10050;55.492;13.506;2024-01-30T11:16:03;67.77;;;19.83;;
19780;SDS011;10050;55.492;13.506;2024-01-30T11:18:30;63.00;;;19.50;;
19780;SDS011;10050;55.492;13.506;2024-01-30T11:20:58;57.00;;;19.70;;
19780;SDS011;10050;55.492;13.506;2024-01-30T11:23:26;69.33;;;19.67;;
19780;SDS011;10050;55.492;13.506;2024-01-30T11:25:53;75.93;;;22.57;;
19780;SDS011;10050;55.492;13.506;2024-01-30T11:28:20;78.67;;;20.47;;
19780;SDS011;10050;55.492;13.506;2024-01-30T11:30:47;78.23;;;22.13;;
19780;SDS011;10050;55.492;13.506;2024-01-30T11:33:15;109.73;;;22.90;;
19780;SDS011;10050;55.492;13.506;2024-01-30T11:35:56;75.90;;;22.90;;
19780;SDS011;10050;55.492;13.506;2024-01-30T11:38:23;67.90;;;21.30;;
19780;SDS011;10050;55.492;13.506;2024-01-30T11:40:54;73.17;;;21.97;;
19780;SDS011;10050;55.492;13.506;2024-01-30T11:43:23;71.47;;;25.10;;
19780;SDS011;10050;55.492;13.506;2024-01-30T11:45:50;77.43;;;27.23;;
19780;SDS011;10050;55.492;13.506;2024-01-30T11:48:16;69.23;;;25.63;;
19780;SDS011;10050;55.492;13.506;2024-01-30T11:50:42;61.80;;;23.87;;
19780;SDS011;10050;55.492;13.506;2024-01-30T11:53:09;69.83;;;25.47;;
19780;SDS011;10050;55.492;13.506;2024-01-30T11:55:35;65.50;;;24.80;;
19780;SDS011;10050;55.492;13.506;2024-01-30T11:58:08;64.63;;;25.80;;
19780;SDS011;10050;55.492;13.506;2024-01-30T12:00:34;64.10;;;24.10;;
19780;SDS011;10050;55.492;13.506;2024-01-30T12:03:00;59.87;;;23.90;;
19780;SDS011;10050;55.492;13.506;2024-01-30T12:05:26;60.37;;;24.03;;
19780;SDS011;10050;55.492;13.506;2024-01-30T12:07:54;60.60;;;23.80;;
19780;SDS011;10050;55.492;13.506;2024-01-30T12:10:23;60.90;;;22.57;;
19780;SDS011;10050;55.492;13.506;2024-01-30T12:12:49;60.27;;;21.17;;
19780;SDS011;10050;55.492;13.506;2024-01-30T12:15:16;49.97;;;20.37;;
19780;SDS011;10050;55.492;13.506;2024-01-30T12:17:43;54.47;;;20.07;;
19780;SDS011;10050;55.492;13.506;2024-01-30T12:20:09;68.93;;;20.63;;
19780;SDS011;10050;55.492;13.506;2024-01-30T12:22:37;56.23;;;21.37;;
19780;SDS011;10050;55.492;13.506;2024-01-30T12:25:20;48.30;;;21.30;;
19780;SDS011;10050;55.492;13.506;2024-01-30T12:27:46;45.97;;;20.17;;
19780;SDS011;10050;55.492;13.506;2024-01-30T12:30:17;38.77;;;19.60;;
19780;SDS011;10050;55.492;13.506;2024-01-30T12:32:45;56.77;;;19.93;;
19780;SDS011;10050;55.492;13.506;2024-01-30T12:35:16;56.53;;;18.60;;
19780;SDS011;10050;55.492;13.506;2024-01-30T12:37:42;49.73;;;17.20;;
19780;SDS011;10050;55.492;13.506;2024-01-30T12:40:13;33.07;;;14.13;;
19780;SDS011;10050;55.492;13.506;2024-01-30T12:42:42;30.70;;;12.87;;
19780;SDS011;10050;55.492;13.506;2024-01-30T12:45:11;32.93;;;12.77;;
19780;SDS011;10050;55.492;13.506;2024-01-30T12:47:36;24.80;;;11.70;;
19780;SDS011;10050;55.492;13.506;2024-01-30T12:50:02;30.47;;;12.20;;
19780;SDS011;10050;55.492;13.506;2024-01-30T12:52:35;37.67;;;11.83;;
19780;SDS011;10050;55.492;13.506;2024-01-30T12:55:03;64.70;;;12.30;;
19780;SDS011;10050;55.492;13.506;2024-01-30T12:57:29;24.17;;;11.20;;
19780;SDS011;10050;55.492;13.506;2024-01-30T12:59:55;37.67;;;11.53;;
19780;SDS011;10050;55.492;13.506;2024-01-30T13:02:20;26.73;;;12.27;;
19780;SDS011;10050;55.492;13.506;2024-01-30T13:04:47;38.67;;;11.13;;
19780;SDS011;10050;55.492;13.506;2024-01-30T13:07:13;21.80;;;10.60;;
19780;SDS011;10050;55.492;13.506;2024-01-30T13:09:38;28.50;;;10.57;;
19780;SDS011;10050;55.492;13.506;2024-01-30T13:12:04;33.97;;;11.23;;
19780;SDS011;10050;55.492;13.506;2024-01-30T13:14:30;26.53;;;11.60;;
19780;SDS011;10050;55.492;13.506;2024-01-30T13:16:56;28.63;;;11.70;;
19780;SDS011;10050;55.492;13.506;2024-01-30T13:19:21;33.83;;;11.50;;
19780;SDS011;10050;55.492;13.506;2024-01-30T13:21:47;26.40;;;10.53;;
19780;SDS011;10050;55.492;13.506;2024-01-30T13:24:13;28.43;;;10.40;;
19780;SDS011;10050;55.492;13.506;2024-01-30T13:26:39;39.67;;;10.90;;
19780;SDS011;10050;55.492;13.506;2024-01-30T13:29:07;25.10;;;9.83;;
19780;SDS011;10050;55.492;13.506;2024-01-30T13:31:33;24.53;;;11.37;;
19780;SDS011;10050;55.492;13.506;2024-01-30T13:33:59;28.13;;;10.33;;
19780;SDS011;10050;55.492;13.506;2024-01-30T13:36:25;32.23;;;10.77;;
19780;SDS011;10050;55.492;13.506;2024-01-30T13:38:51;19.17;;;9.73;;
19780;SDS011;10050;55.492;13.506;2024-01-30T13:41:16;30.10;;;10.23;;
19780;SDS011;10050;55.492;13.506;2024-01-30T13:43:43;20.33;;;9.43;;
19780;SDS011;10050;55.492;13.506;2024-01-30T13:46:09;22.33;;;9.77;;
19780;SDS011;10050;55.492;13.506;2024-01-30T13:48:35;28.73;;;9.53;;
19780;SDS011;10050;55.492;13.506;2024-01-30T13:51:01;19.00;;;8.70;;
19780;SDS011;10050;55.492;13.506;2024-01-30T13:53:26;29.57;;;9.70;;
19780;SDS011;10050;55.492;13.506;2024-01-30T13:55:52;17.33;;;9.23;;
19780;SDS011;10050;55.492;13.506;2024-01-30T13:58:18;17.37;;;9.67;;
19780;SDS011;10050;55.492;13.506;2024-01-30T14:00:43;15.77;;;9.47;;
19780;SDS011;10050;55.492;13.506;2024-01-30T14:03:09;16.13;;;10.00;;
19780;SDS011;10050;55.492;13.506;2024-01-30T14:05:35;16.67;;;9.43;;
19780;SDS011;10050;55.492;13.506;2024-01-30T14:08:00;15.20;;;8.97;;
19780;SDS011;10050;55.492;13.506;2024-01-30T14:10:26;15.43;;;9.40;;
19780;SDS011;10050;55.492;13.506;2024-01-30T14:12:52;14.60;;;9.33;;
19780;SDS011;10050;55.492;13.506;2024-01-30T14:15:18;14.70;;;9.10;;